sensor_id;sensor_type;location;lat;lon;timestamp;temperature;humidity
65470;DHT22;52067;50.710;14.492;2023-09-30T00:00:14;16.33;86.89
65470;DHT22;52067;50.710;14.492;2023-09-30T00:02:39;16.27;87.06
65470;DHT22;52067;50.710;14.492;2023-09-30T00:05:05;16.16;87.13
65470;DHT22;52067;50.710;14.492;2023-09-30T00:07:31;16.24;86.59
65470;DHT22;52067;50.710;14.492;2023-09-30T00:09:56;16.20;86.88
65470;DHT22;52067;50.710;14.492;2023-09-30T00:12:21;15.95;87.63
65470;DHT22;52067;50.710;14.492;2023-09-30T00:14:47;15.90;87.95
65470;DHT22;52067;50.710;14.492;2023-09-30T00:17:13;15.97;87.77
65470;DHT22;52067;50.710;14.492;2023-09-30T00:19:38;16.36;86.26
65470;DHT22;52067;50.710;14.492;2023-09-30T00:22:04;16.64;85.37
65470;DHT22;52067;50.710;14.492;2023-09-30T00:24:29;16.99;83.98
65470;DHT22;52067;50.710;14.492;2023-09-30T00:26:55;17.30;83.19
65470;DHT22;52067;50.710;14.492;2023-09-30T00:29:21;17.59;82.13
65470;DHT22;52067;50.710;14.492;2023-09-30T00:31:46;17.91;80.58
65470;DHT22;52067;50.710;14.492;2023-09-30T00:34:12;18.13;80.02
65470;DHT22;52067;50.710;14.492;2023-09-30T00:36:37;18.49;78.28
65470;DHT22;52067;50.710;14.492;2023-09-30T00:39:02;18.66;77.59
65470;DHT22;52067;50.710;14.492;2023-09-30T00:41:28;18.81;76.72
65470;DHT22;52067;50.710;14.492;2023-09-30T00:43:54;18.96;76.35
65470;DHT22;52067;50.710;14.492;2023-09-30T00:48:47;19.24;74.89
65470;DHT22;52067;50.710;14.492;2023-09-30T00:51:13;19.34;74.60
65470;DHT22;52067;50.710;14.492;2023-09-30T00:53:38;19.27;74.83
65470;DHT22;52067;50.710;14.492;2023-09-30T00:56:04;19.35;74.38
65470;DHT22;52067;50.710;14.492;2023-09-30T00:58:30;19.28;74.64
65470;DHT22;52067;50.710;14.492;2023-09-30T01:00:56;19.22;74.94
65470;DHT22;52067;50.710;14.492;2023-09-30T01:03:22;19.24;74.60
65470;DHT22;52067;50.710;14.492;2023-09-30T01:05:48;19.28;74.69
65470;DHT22;52067;50.710;14.492;2023-09-30T01:08:14;19.31;74.67
65470;DHT22;52067;50.710;14.492;2023-09-30T01:10:40;19.21;74.82
65470;DHT22;52067;50.710;14.492;2023-09-30T01:13:05;19.22;74.54
65470;DHT22;52067;50.710;14.492;2023-09-30T01:15:30;19.21;74.83
65470;DHT22;52067;50.710;14.492;2023-09-30T01:17:56;19.21;74.88
65470;DHT22;52067;50.710;14.492;2023-09-30T01:20:21;19.18;74.71
65470;DHT22;52067;50.710;14.492;2023-09-30T01:22:48;19.12;74.79
65470;DHT22;52067;50.710;14.492;2023-09-30T01:25:13;19.14;74.74
65470;DHT22;52067;50.710;14.492;2023-09-30T01:27:39;19.06;74.76
65470;DHT22;52067;50.710;14.492;2023-09-30T01:30:04;18.93;75.37
65470;DHT22;52067;50.710;14.492;2023-09-30T01:32:29;19.00;75.21
65470;DHT22;52067;50.710;14.492;2023-09-30T01:34:55;18.96;75.18
65470;DHT22;52067;50.710;14.492;2023-09-30T01:37:20;18.80;75.65
65470;DHT22;52067;50.710;14.492;2023-09-30T01:39:45;18.70;75.99
65470;DHT22;52067;50.710;14.492;2023-09-30T01:42:11;18.71;76.05
65470;DHT22;52067;50.710;14.492;2023-09-30T01:44:36;18.61;76.24
65470;DHT22;52067;50.710;14.492;2023-09-30T01:47:01;18.53;76.39
65470;DHT22;52067;50.710;14.492;2023-09-30T01:49:27;18.48;76.87
65470;DHT22;52067;50.710;14.492;2023-09-30T01:51:52;18.43;76.99
65470;DHT22;52067;50.710;14.492;2023-09-30T01:54:18;18.36;77.31
65470;DHT22;52067;50.710;14.492;2023-09-30T01:56:43;18.28;77.55
65470;DHT22;52067;50.710;14.492;2023-09-30T01:59:08;18.26;77.57
65470;DHT22;52067;50.710;14.492;2023-09-30T02:01:34;18.29;77.51
65470;DHT22;52067;50.710;14.492;2023-09-30T02:03:59;18.26;77.57
65470;DHT22;52067;50.710;14.492;2023-09-30T02:06:24;18.24;77.89
65470;DHT22;52067;50.710;14.492;2023-09-30T02:08:49;18.11;78.47
65470;DHT22;52067;50.710;14.492;2023-09-30T02:11:15;18.18;78.17
65470;DHT22;52067;50.710;14.492;2023-09-30T02:13:41;18.12;78.35
65470;DHT22;52067;50.710;14.492;2023-09-30T02:16:11;18.08;78.55
65470;DHT22;52067;50.710;14.492;2023-09-30T02:18:36;18.02;78.87
65470;DHT22;52067;50.710;14.492;2023-09-30T02:21:02;17.98;78.98
65470;DHT22;52067;50.710;14.492;2023-09-30T02:23:27;17.98;79.11
65470;DHT22;52067;50.710;14.492;2023-09-30T02:25:52;17.95;79.38
65470;DHT22;52067;50.710;14.492;2023-09-30T02:28:17;17.85;79.84
65470;DHT22;52067;50.710;14.492;2023-09-30T02:30:43;17.71;80.34
65470;DHT22;52067;50.710;14.492;2023-09-30T02:33:08;17.77;80.40
65470;DHT22;52067;50.710;14.492;2023-09-30T02:35:33;17.75;80.52
65470;DHT22;52067;50.710;14.492;2023-09-30T02:37:58;17.71;80.94
65470;DHT22;52067;50.710;14.492;2023-09-30T02:40:24;17.70;81.65
65470;DHT22;52067;50.710;14.492;2023-09-30T02:42:50;17.70;81.77
65470;DHT22;52067;50.710;14.492;2023-09-30T02:45:16;17.63;82.07
65470;DHT22;52067;50.710;14.492;2023-09-30T02:47:44;17.50;82.94
65470;DHT22;52067;50.710;14.492;2023-09-30T02:50:10;17.43;83.18
65470;DHT22;52067;50.710;14.492;2023-09-30T02:52:39;17.39;83.48
65470;DHT22;52067;50.710;14.492;2023-09-30T02:55:06;17.39;83.65
65470;DHT22;52067;50.710;14.492;2023-09-30T02:57:32;17.26;83.97
65470;DHT22;52067;50.710;14.492;2023-09-30T02:59:58;17.32;83.76
65470;DHT22;52067;50.710;14.492;2023-09-30T03:02:25;17.20;84.03
65470;DHT22;52067;50.710;14.492;2023-09-30T03:04:51;17.06;84.81
65470;DHT22;52067;50.710;14.492;2023-09-30T03:07:18;16.94;85.38
65470;DHT22;52067;50.710;14.492;2023-09-30T03:09:44;16.76;86.32
65470;DHT22;52067;50.710;14.492;2023-09-30T03:12:10;16.64;87.25
65470;DHT22;52067;50.710;14.492;2023-09-30T06:50:55;14.65;73.33
65470;DHT22;52067;50.710;14.492;2023-09-30T06:53:20;14.96;71.62
65470;DHT22;52067;50.710;14.492;2023-09-30T06:55:47;15.12;71.26
65470;DHT22;52067;50.710;14.492;2023-09-30T06:58:12;15.12;72.74
65470;DHT22;52067;50.710;14.492;2023-09-30T07:00:40;15.32;69.89
65470;DHT22;52067;50.710;14.492;2023-09-30T07:03:06;15.30;71.64
65470;DHT22;52067;50.710;14.492;2023-09-30T07:05:35;15.17;71.81
65470;DHT22;52067;50.710;14.492;2023-09-30T07:08:00;15.16;70.53
65470;DHT22;52067;50.710;14.492;2023-09-30T07:10:26;14.79;71.25
65470;DHT22;52067;50.710;14.492;2023-09-30T07:12:51;15.12;70.56
65470;DHT22;52067;50.710;14.492;2023-09-30T07:15:17;15.42;69.91
65470;DHT22;52067;50.710;14.492;2023-09-30T07:17:43;15.55;70.87
65470;DHT22;52067;50.710;14.492;2023-09-30T07:20:09;15.61;70.33
65470;DHT22;52067;50.710;14.492;2023-09-30T07:22:35;15.54;70.86
65470;DHT22;52067;50.710;14.492;2023-09-30T07:25:04;15.63;70.04
65470;DHT22;52067;50.710;14.492;2023-09-30T07:27:37;15.85;70.35
65470;DHT22;52067;50.710;14.492;2023-09-30T07:30:06;15.30;70.04
65470;DHT22;52067;50.710;14.492;2023-09-30T07:32:32;15.51;70.34
65470;DHT22;52067;50.710;14.492;2023-09-30T07:34:57;15.51;70.00
65470;DHT22;52067;50.710;14.492;2023-09-30T07:37:23;15.51;68.52
65470;DHT22;52067;50.710;14.492;2023-09-30T07:39:48;15.45;70.29
65470;DHT22;52067;50.710;14.492;2023-09-30T07:42:21;15.31;69.45
65470;DHT22;52067;50.710;14.492;2023-09-30T07:44:51;15.20;70.45
65470;DHT22;52067;50.710;14.492;2023-09-30T07:47:18;14.99;71.39
65470;DHT22;52067;50.710;14.492;2023-09-30T07:49:46;15.20;71.40
65470;DHT22;52067;50.710;14.492;2023-09-30T07:52:14;15.00;71.56
65470;DHT22;52067;50.710;14.492;2023-09-30T07:54:40;14.81;73.31
65470;DHT22;52067;50.710;14.492;2023-09-30T07:57:05;14.79;72.55
65470;DHT22;52067;50.710;14.492;2023-09-30T07:59:33;14.81;72.65
65470;DHT22;52067;50.710;14.492;2023-09-30T08:02:01;15.00;72.38
65470;DHT22;52067;50.710;14.492;2023-09-30T08:04:40;15.11;73.40
65470;DHT22;52067;50.710;14.492;2023-09-30T08:07:05;15.31;70.87
65470;DHT22;52067;50.710;14.492;2023-09-30T08:09:31;15.62;69.82
65470;DHT22;52067;50.710;14.492;2023-09-30T08:11:56;15.96;68.14
65470;DHT22;52067;50.710;14.492;2023-09-30T08:14:36;16.05;67.29
65470;DHT22;52067;50.710;14.492;2023-09-30T08:17:09;16.07;68.51
65470;DHT22;52067;50.710;14.492;2023-09-30T08:19:44;16.47;65.20
65470;DHT22;52067;50.710;14.492;2023-09-30T08:22:09;16.54;64.92
65470;DHT22;52067;50.710;14.492;2023-09-30T08:24:35;16.51;65.66
65470;DHT22;52067;50.710;14.492;2023-09-30T08:27:01;16.37;64.36
65470;DHT22;52067;50.710;14.492;2023-09-30T08:29:26;16.30;64.39
65470;DHT22;52067;50.710;14.492;2023-09-30T08:31:55;16.20;66.88
65470;DHT22;52067;50.710;14.492;2023-09-30T08:34:20;16.65;66.58
65470;DHT22;52067;50.710;14.492;2023-09-30T08:36:47;16.47;64.85
65470;DHT22;52067;50.710;14.492;2023-09-30T08:39:12;16.45;63.71
65470;DHT22;52067;50.710;14.492;2023-09-30T08:41:40;16.47;62.87
65470;DHT22;52067;50.710;14.492;2023-09-30T08:44:18;16.79;62.44
65470;DHT22;52067;50.710;14.492;2023-09-30T08:46:46;17.30;63.11
65470;DHT22;52067;50.710;14.492;2023-09-30T08:49:13;17.22;64.02
65470;DHT22;52067;50.710;14.492;2023-09-30T08:51:44;17.29;60.56
65470;DHT22;52067;50.710;14.492;2023-09-30T08:54:12;17.11;61.29
65470;DHT22;52067;50.710;14.492;2023-09-30T08:56:52;16.86;61.80
65470;DHT22;52067;50.710;14.492;2023-09-30T08:59:17;16.41;64.63
65470;DHT22;52067;50.710;14.492;2023-09-30T09:01:43;16.78;61.40
65470;DHT22;52067;50.710;14.492;2023-09-30T09:04:09;16.82;61.95
65470;DHT22;52067;50.710;14.492;2023-09-30T09:06:37;17.01;61.65
65470;DHT22;52067;50.710;14.492;2023-09-30T09:09:18;16.82;62.74
65470;DHT22;52067;50.710;14.492;2023-09-30T09:11:45;16.61;63.25
65470;DHT22;52067;50.710;14.492;2023-09-30T09:14:11;17.02;61.26
65470;DHT22;52067;50.710;14.492;2023-09-30T09:16:54;16.44;62.62
65470;DHT22;52067;50.710;14.492;2023-09-30T09:19:20;17.05;60.68
65470;DHT22;52067;50.710;14.492;2023-09-30T09:21:59;17.44;60.64
65470;DHT22;52067;50.710;14.492;2023-09-30T09:24:37;18.15;58.65
65470;DHT22;52067;50.710;14.492;2023-09-30T09:27:11;18.74;55.22
65470;DHT22;52067;50.710;14.492;2023-09-30T09:29:38;19.56;53.01
65470;DHT22;52067;50.710;14.492;2023-09-30T09:34:37;19.29;53.99
65470;DHT22;52067;50.710;14.492;2023-09-30T09:37:13;19.79;51.93
65470;DHT22;52067;50.710;14.492;2023-09-30T09:39:39;18.52;55.06
65470;DHT22;52067;50.710;14.492;2023-09-30T09:42:04;20.41;51.28
65470;DHT22;52067;50.710;14.492;2023-09-30T09:44:33;20.96;49.15
65470;DHT22;52067;50.710;14.492;2023-09-30T09:47:01;21.54;48.04
65470;DHT22;52067;50.710;14.492;2023-09-30T09:49:31;21.75;46.93
65470;DHT22;52067;50.710;14.492;2023-09-30T09:51:57;21.26;47.55
65470;DHT22;52067;50.710;14.492;2023-09-30T09:54:24;22.87;43.68
65470;DHT22;52067;50.710;14.492;2023-09-30T09:56:49;22.84;45.96
65470;DHT22;52067;50.710;14.492;2023-09-30T09:59:16;23.35;42.54
65470;DHT22;52067;50.710;14.492;2023-09-30T10:01:41;22.29;43.64
65470;DHT22;52067;50.710;14.492;2023-09-30T10:04:07;23.31;42.73
65470;DHT22;52067;50.710;14.492;2023-09-30T10:06:34;22.71;46.34
65470;DHT22;52067;50.710;14.492;2023-09-30T10:09:08;23.11;43.88
65470;DHT22;52067;50.710;14.492;2023-09-30T10:11:35;22.69;43.89
65470;DHT22;52067;50.710;14.492;2023-09-30T10:14:01;22.09;46.27
65470;DHT22;52067;50.710;14.492;2023-09-30T10:19:14;20.78;50.82
65470;DHT22;52067;50.710;14.492;2023-09-30T10:21:46;21.44;46.75
65470;DHT22;52067;50.710;14.492;2023-09-30T10:40:47;23.89;43.40
65470;DHT22;52067;50.710;14.492;2023-09-30T10:43:39;22.71;44.92
65470;DHT22;52067;50.710;14.492;2023-09-30T10:48:52;22.26;46.75
65470;DHT22;52067;50.710;14.492;2023-09-30T10:51:19;22.80;43.70
65470;DHT22;52067;50.710;14.492;2023-09-30T10:53:53;23.39;43.46
65470;DHT22;52067;50.710;14.492;2023-09-30T10:56:22;24.14;43.94
65470;DHT22;52067;50.710;14.492;2023-09-30T10:58:49;23.83;41.47
65470;DHT22;52067;50.710;14.492;2023-09-30T11:01:24;22.01;45.33
65470;DHT22;52067;50.710;14.492;2023-09-30T11:03:55;20.23;50.08
65470;DHT22;52067;50.710;14.492;2023-09-30T11:06:23;22.29;45.06
65470;DHT22;52067;50.710;14.492;2023-09-30T11:11:14;22.64;44.86
65470;DHT22;52067;50.710;14.492;2023-09-30T11:13:39;25.40;38.47
65470;DHT22;52067;50.710;14.492;2023-09-30T11:16:05;23.07;42.89
65470;DHT22;52067;50.710;14.492;2023-09-30T11:18:32;22.74;44.50
65470;DHT22;52067;50.710;14.492;2023-09-30T11:21:08;24.61;39.73
65470;DHT22;52067;50.710;14.492;2023-09-30T11:23:35;25.75;37.33
65470;DHT22;52067;50.710;14.492;2023-09-30T11:26:01;26.16;37.72
65470;DHT22;52067;50.710;14.492;2023-09-30T11:31:03;27.07;35.71
65470;DHT22;52067;50.710;14.492;2023-09-30T11:33:29;23.70;40.68
65470;DHT22;52067;50.710;14.492;2023-09-30T11:36:00;24.61;39.44
65470;DHT22;52067;50.710;14.492;2023-09-30T11:38:30;22.25;44.07
65470;DHT22;52067;50.710;14.492;2023-09-30T11:40:59;22.81;42.63
65470;DHT22;52067;50.710;14.492;2023-09-30T11:43:25;23.93;40.60
65470;DHT22;52067;50.710;14.492;2023-09-30T11:45:50;23.75;40.68
65470;DHT22;52067;50.710;14.492;2023-09-30T11:48:19;24.20;40.34
65470;DHT22;52067;50.710;14.492;2023-09-30T11:50:48;22.97;42.28
65470;DHT22;52067;50.710;14.492;2023-09-30T11:53:16;23.89;40.70
65470;DHT22;52067;50.710;14.492;2023-09-30T11:55:42;25.15;37.53
65470;DHT22;52067;50.710;14.492;2023-09-30T11:58:07;25.63;37.61
65470;DHT22;52067;50.710;14.492;2023-09-30T12:00:35;25.16;38.89
65470;DHT22;52067;50.710;14.492;2023-09-30T12:03:00;25.08;38.56
65470;DHT22;52067;50.710;14.492;2023-09-30T12:05:25;25.77;36.40
65470;DHT22;52067;50.710;14.492;2023-09-30T12:07:51;25.39;36.72
65470;DHT22;52067;50.710;14.492;2023-09-30T12:10:16;23.92;40.68
65470;DHT22;52067;50.710;14.492;2023-09-30T12:12:41;24.67;39.16
65470;DHT22;52067;50.710;14.492;2023-09-30T12:15:07;25.97;35.53
65470;DHT22;52067;50.710;14.492;2023-09-30T12:17:34;25.19;35.89
65470;DHT22;52067;50.710;14.492;2023-09-30T12:19:59;22.56;40.57
65470;DHT22;52067;50.710;14.492;2023-09-30T12:22:25;23.32;39.41
65470;DHT22;52067;50.710;14.492;2023-09-30T12:24:50;23.83;39.46
65470;DHT22;52067;50.710;14.492;2023-09-30T12:27:17;24.71;38.01
65470;DHT22;52067;50.710;14.492;2023-09-30T12:29:42;24.04;39.96
65470;DHT22;52067;50.710;14.492;2023-09-30T12:32:09;24.91;38.03
65470;DHT22;52067;50.710;14.492;2023-09-30T12:34:34;26.55;35.44
65470;DHT22;52067;50.710;14.492;2023-09-30T12:37:01;23.61;39.55
65470;DHT22;52067;50.710;14.492;2023-09-30T12:39:26;26.47;35.62
65470;DHT22;52067;50.710;14.492;2023-09-30T12:41:55;27.53;34.40
65470;DHT22;52067;50.710;14.492;2023-09-30T12:44:20;26.66;35.25
65470;DHT22;52067;50.710;14.492;2023-09-30T12:46:47;23.11;42.11
65470;DHT22;52067;50.710;14.492;2023-09-30T12:49:13;24.12;39.44
65470;DHT22;52067;50.710;14.492;2023-09-30T12:51:39;26.24;35.23
65470;DHT22;52067;50.710;14.492;2023-09-30T12:54:04;26.35;35.57
65470;DHT22;52067;50.710;14.492;2023-09-30T12:56:30;25.82;35.00
65470;DHT22;52067;50.710;14.492;2023-09-30T12:58:56;23.92;39.43
65470;DHT22;52067;50.710;14.492;2023-09-30T13:01:22;23.35;40.88
65470;DHT22;52067;50.710;14.492;2023-09-30T13:03:48;25.95;35.99
65470;DHT22;52067;50.710;14.492;2023-09-30T13:06:14;24.35;38.70
65470;DHT22;52067;50.710;14.492;2023-09-30T13:08:40;25.03;39.76
65470;DHT22;52067;50.710;14.492;2023-09-30T13:11:07;26.86;34.62
65470;DHT22;52067;50.710;14.492;2023-09-30T13:13:32;25.71;35.73
65470;DHT22;52067;50.710;14.492;2023-09-30T13:16:02;27.59;34.67
65470;DHT22;52067;50.710;14.492;2023-09-30T13:18:30;26.80;34.77
65470;DHT22;52067;50.710;14.492;2023-09-30T13:20:56;26.04;34.29
65470;DHT22;52067;50.710;14.492;2023-09-30T13:23:22;24.58;37.65
65470;DHT22;52067;50.710;14.492;2023-09-30T13:25:47;27.38;32.65
65470;DHT22;52067;50.710;14.492;2023-09-30T13:28:13;27.83;32.32
65470;DHT22;52067;50.710;14.492;2023-09-30T13:30:39;26.67;35.70
65470;DHT22;52067;50.710;14.492;2023-09-30T13:33:04;28.58;32.21
65470;DHT22;52067;50.710;14.492;2023-09-30T13:35:30;28.21;31.48
65470;DHT22;52067;50.710;14.492;2023-09-30T13:37:55;28.13;32.28
65470;DHT22;52067;50.710;14.492;2023-09-30T13:40:21;28.17;31.11
65470;DHT22;52067;50.710;14.492;2023-09-30T13:42:46;28.74;31.25
65470;DHT22;52067;50.710;14.492;2023-09-30T13:45:12;27.79;32.12
65470;DHT22;52067;50.710;14.492;2023-09-30T13:47:37;25.15;35.90
65470;DHT22;52067;50.710;14.492;2023-09-30T13:50:03;26.39;34.00
65470;DHT22;52067;50.710;14.492;2023-09-30T13:52:35;25.51;36.16
65470;DHT22;52067;50.710;14.492;2023-09-30T13:55:01;25.87;35.37
65470;DHT22;52067;50.710;14.492;2023-09-30T13:57:27;25.66;34.99
65470;DHT22;52067;50.710;14.492;2023-09-30T13:59:53;25.78;34.91
65470;DHT22;52067;50.710;14.492;2023-09-30T14:02:18;26.04;33.95
65470;DHT22;52067;50.710;14.492;2023-09-30T14:04:44;26.77;33.82
65470;DHT22;52067;50.710;14.492;2023-09-30T14:07:10;24.86;36.49
65470;DHT22;52067;50.710;14.492;2023-09-30T14:09:35;26.04;35.27
65470;DHT22;52067;50.710;14.492;2023-09-30T14:12:01;27.28;33.05
65470;DHT22;52067;50.710;14.492;2023-09-30T14:14:30;27.74;32.40
65470;DHT22;52067;50.710;14.492;2023-09-30T14:16:55;26.60;34.52
65470;DHT22;52067;50.710;14.492;2023-09-30T14:20:46;27.61;31.39
65470;DHT22;52067;50.710;14.492;2023-09-30T14:23:13;25.98;34.41
65470;DHT22;52067;50.710;14.492;2023-09-30T14:25:39;26.22;32.90
65470;DHT22;52067;50.710;14.492;2023-09-30T14:28:07;26.22;34.05
65470;DHT22;52067;50.710;14.492;2023-09-30T14:30:33;27.15;32.46
65470;DHT22;52067;50.710;14.492;2023-09-30T14:32:58;26.74;34.41
65470;DHT22;52067;50.710;14.492;2023-09-30T14:35:24;23.82;38.61
65470;DHT22;52067;50.710;14.492;2023-09-30T14:37:49;26.59;33.19
65470;DHT22;52067;50.710;14.492;2023-09-30T14:40:15;26.15;33.22
65470;DHT22;52067;50.710;14.492;2023-09-30T14:42:41;23.99;37.14
65470;DHT22;52067;50.710;14.492;2023-09-30T14:45:07;25.22;35.35
65470;DHT22;52067;50.710;14.492;2023-09-30T14:47:33;25.56;34.86
65470;DHT22;52067;50.710;14.492;2023-09-30T14:49:59;24.27;37.42
65470;DHT22;52067;50.710;14.492;2023-09-30T14:52:27;23.11;39.80
65470;DHT22;52067;50.710;14.492;2023-09-30T14:54:52;22.59;39.32
65470;DHT22;52067;50.710;14.492;2023-09-30T14:57:17;21.58;42.46
65470;DHT22;52067;50.710;14.492;2023-09-30T14:59:45;21.09;42.76
65470;DHT22;52067;50.710;14.492;2023-09-30T15:02:10;20.54;43.73
65470;DHT22;52067;50.710;14.492;2023-09-30T15:04:39;19.92;46.32
65470;DHT22;52067;50.710;14.492;2023-09-30T15:07:04;19.77;45.79
65470;DHT22;52067;50.710;14.492;2023-09-30T15:09:30;19.75;45.97
65470;DHT22;52067;50.710;14.492;2023-09-30T15:11:56;19.96;46.09
65470;DHT22;52067;50.710;14.492;2023-09-30T15:14:23;19.85;45.68
65470;DHT22;52067;50.710;14.492;2023-09-30T15:16:48;19.83;46.54
65470;DHT22;52067;50.710;14.492;2023-09-30T15:19:14;19.62;47.80
65470;DHT22;52067;50.710;14.492;2023-09-30T15:21:39;19.03;48.89
65470;DHT22;52067;50.710;14.492;2023-09-30T15:24:06;19.48;46.62
65470;DHT22;52067;50.710;14.492;2023-09-30T15:26:32;19.45;46.80
65470;DHT22;52067;50.710;14.492;2023-09-30T15:28:57;19.51;47.26
65470;DHT22;52067;50.710;14.492;2023-09-30T15:31:30;18.84;47.42
65470;DHT22;52067;50.710;14.492;2023-09-30T15:33:58;18.89;47.92
65470;DHT22;52067;50.710;14.492;2023-09-30T15:36:25;19.10;47.86
65470;DHT22;52067;50.710;14.492;2023-09-30T15:38:55;18.87;48.92
65470;DHT22;52067;50.710;14.492;2023-09-30T15:41:24;19.01;49.40
65470;DHT22;52067;50.710;14.492;2023-09-30T15:43:49;19.28;47.59
65470;DHT22;52067;50.710;14.492;2023-09-30T15:46:24;18.91;48.72
65470;DHT22;52067;50.710;14.492;2023-09-30T15:48:50;19.28;48.12
65470;DHT22;52067;50.710;14.492;2023-09-30T15:51:22;18.74;48.60
65470;DHT22;52067;50.710;14.492;2023-09-30T15:53:50;18.66;49.90
65470;DHT22;52067;50.710;14.492;2023-09-30T15:56:16;18.61;50.36
65470;DHT22;52067;50.710;14.492;2023-09-30T15:58:41;18.70;49.45
65470;DHT22;52067;50.710;14.492;2023-09-30T16:01:11;18.86;49.50
65470;DHT22;52067;50.710;14.492;2023-09-30T16:03:39;18.55;50.79
65470;DHT22;52067;50.710;14.492;2023-09-30T16:06:07;18.70;50.50
65470;DHT22;52067;50.710;14.492;2023-09-30T16:08:36;18.74;50.51
65470;DHT22;52067;50.710;14.492;2023-09-30T16:11:03;18.74;51.17
65470;DHT22;52067;50.710;14.492;2023-09-30T16:13:36;18.57;52.50
65470;DHT22;52067;50.710;14.492;2023-09-30T16:16:04;18.57;51.88
65470;DHT22;52067;50.710;14.492;2023-09-30T16:18:34;18.49;52.05
65470;DHT22;52067;50.710;14.492;2023-09-30T16:21:02;18.21;52.22
65470;DHT22;52067;50.710;14.492;2023-09-30T16:23:47;18.05;52.58
65470;DHT22;52067;50.710;14.492;2023-09-30T16:26:14;17.94;53.38
65470;DHT22;52067;50.710;14.492;2023-09-30T16:28:43;17.75;53.70
65470;DHT22;52067;50.710;14.492;2023-09-30T16:31:09;17.59;54.55
65470;DHT22;52067;50.710;14.492;2023-09-30T16:33:35;17.34;54.88
65470;DHT22;52067;50.710;14.492;2023-09-30T16:36:04;16.96;56.92
65470;DHT22;52067;50.710;14.492;2023-09-30T16:38:31;16.65;59.10
65470;DHT22;52067;50.710;14.492;2023-09-30T16:41:00;16.40;60.24
65470;DHT22;52067;50.710;14.492;2023-09-30T16:43:27;16.05;61.19
65470;DHT22;52067;50.710;14.492;2023-09-30T16:45:59;15.79;61.64
65470;DHT22;52067;50.710;14.492;2023-09-30T16:48:27;15.59;62.44
65470;DHT22;52067;50.710;14.492;2023-09-30T16:50:52;15.55;62.79
65470;DHT22;52067;50.710;14.492;2023-09-30T16:53:18;15.38;64.00
65470;DHT22;52067;50.710;14.492;2023-09-30T16:55:45;15.12;65.05
65470;DHT22;52067;50.710;14.492;2023-09-30T16:58:12;14.93;65.88
65470;DHT22;52067;50.710;14.492;2023-09-30T17:00:37;14.76;66.41
65470;DHT22;52067;50.710;14.492;2023-09-30T17:03:03;14.60;66.38
65470;DHT22;52067;50.710;14.492;2023-09-30T17:05:34;14.58;66.66
65470;DHT22;52067;50.710;14.492;2023-09-30T17:07:59;13.97;68.39
65470;DHT22;52067;50.710;14.492;2023-09-30T17:10:25;13.97;67.86
65470;DHT22;52067;50.710;14.492;2023-09-30T17:12:50;14.10;67.43
65470;DHT22;52067;50.710;14.492;2023-09-30T17:15:15;14.02;68.44
65470;DHT22;52067;50.710;14.492;2023-09-30T17:17:41;13.71;69.07
65470;DHT22;52067;50.710;14.492;2023-09-30T17:20:07;13.73;69.65
65470;DHT22;52067;50.710;14.492;2023-09-30T17:22:33;13.64;70.65
65470;DHT22;52067;50.710;14.492;2023-09-30T17:24:59;13.62;70.99
65470;DHT22;52067;50.710;14.492;2023-09-30T17:27:24;13.47;71.68
65470;DHT22;52067;50.710;14.492;2023-09-30T17:29:50;13.23;72.10
65470;DHT22;52067;50.710;14.492;2023-09-30T17:32:15;13.23;72.19
65470;DHT22;52067;50.710;14.492;2023-09-30T17:34:43;13.16;72.79
65470;DHT22;52067;50.710;14.492;2023-09-30T17:37:09;12.92;73.22
65470;DHT22;52067;50.710;14.492;2023-09-30T17:39:34;12.65;74.92
65470;DHT22;52067;50.710;14.492;2023-09-30T17:42:00;12.77;73.78
65470;DHT22;52067;50.710;14.492;2023-09-30T17:44:25;12.73;73.82
65470;DHT22;52067;50.710;14.492;2023-09-30T17:46:51;12.63;74.10
65470;DHT22;52067;50.710;14.492;2023-09-30T17:49:16;12.47;74.42
65470;DHT22;52067;50.710;14.492;2023-09-30T17:51:42;12.09;76.46
65470;DHT22;52067;50.710;14.492;2023-09-30T17:54:12;12.26;75.82
65470;DHT22;52067;50.710;14.492;2023-09-30T17:56:38;12.33;75.19
65470;DHT22;52067;50.710;14.492;2023-09-30T17:59:06;12.10;76.19
65470;DHT22;52067;50.710;14.492;2023-09-30T18:01:32;11.37;79.19
65470;DHT22;52067;50.710;14.492;2023-09-30T18:03:57;11.57;78.58
65470;DHT22;52067;50.710;14.492;2023-09-30T18:06:22;11.59;77.95
65470;DHT22;52067;50.710;14.492;2023-09-30T18:08:48;11.10;79.98
65470;DHT22;52067;50.710;14.492;2023-09-30T18:11:14;10.92;80.41
65470;DHT22;52067;50.710;14.492;2023-09-30T18:13:40;11.13;79.71
65470;DHT22;52067;50.710;14.492;2023-09-30T18:16:06;11.37;78.81
65470;DHT22;52067;50.710;14.492;2023-09-30T18:18:33;11.37;78.14
65470;DHT22;52067;50.710;14.492;2023-09-30T18:20:59;11.45;77.79
65470;DHT22;52067;50.710;14.492;2023-09-30T18:23:27;11.34;78.08
65470;DHT22;52067;50.710;14.492;2023-09-30T18:25:57;11.32;78.01
65470;DHT22;52067;50.710;14.492;2023-09-30T18:28:25;11.34;77.91
65470;DHT22;52067;50.710;14.492;2023-09-30T18:31:00;11.34;78.04
65470;DHT22;52067;50.710;14.492;2023-09-30T18:33:43;11.44;77.58
65470;DHT22;52067;50.710;14.492;2023-09-30T18:36:18;11.42;76.98
65470;DHT22;52067;50.710;14.492;2023-09-30T18:38:43;11.37;76.80
65470;DHT22;52067;50.710;14.492;2023-09-30T18:41:23;11.31;76.69
65470;DHT22;52067;50.710;14.492;2023-09-30T18:43:59;11.30;76.99
65470;DHT22;52067;50.710;14.492;2023-09-30T18:46:24;11.30;76.86
65470;DHT22;52067;50.710;14.492;2023-09-30T18:48:50;11.17;77.59
65470;DHT22;52067;50.710;14.492;2023-09-30T18:51:19;11.19;77.07
65470;DHT22;52067;50.710;14.492;2023-09-30T18:53:58;11.16;76.91
65470;DHT22;52067;50.710;14.492;2023-09-30T18:56:30;11.06;76.94
65470;DHT22;52067;50.710;14.492;2023-09-30T18:58:58;10.96;77.48
65470;DHT22;52067;50.710;14.492;2023-09-30T19:01:26;10.62;78.30
65470;DHT22;52067;50.710;14.492;2023-09-30T19:04:10;10.56;78.64
65470;DHT22;52067;50.710;14.492;2023-09-30T19:06:38;10.35;79.05
65470;DHT22;52067;50.710;14.492;2023-09-30T19:09:04;10.20;80.27
65470;DHT22;52067;50.710;14.492;2023-09-30T19:11:35;9.98;81.05
65470;DHT22;52067;50.710;14.492;2023-09-30T19:14:03;10.24;79.92
65470;DHT22;52067;50.710;14.492;2023-09-30T19:16:33;10.22;79.52
65470;DHT22;52067;50.710;14.492;2023-09-30T19:19:07;10.20;79.74
65470;DHT22;52067;50.710;14.492;2023-09-30T19:21:35;9.70;81.83
65470;DHT22;52067;50.710;14.492;2023-09-30T19:24:06;9.82;80.75